Flugplatz Uetersen/Heist

EDHE · Schleswig-Holstein, Allemagne

METAR anciennes EDHE · Flugplatz Uetersen/Heist

Tu vois ci-dessous les METAR des derniers jours. Sélectionne une année pour parcourir les METAR plus anciens, à partir de l'année 2007.

5 mars 2024

Temps Code Temps Temp. Vue Base cloud Vent METAR/SPECI
01:50
V
5 °C 10 km+ 3.800 ft 070° 070° 11 kt METAR EDHI 050050Z AUTO 07011KT 9999 // SCT021/// OVC038/// 05/02 Q1015
01:20
V
5 °C 10 km+ 3.100 ft 070° 070° 11 kt METAR EDHI 050020Z AUTO 07011KT 9999 // FEW027/// BKN031/// OVC036/// 05/02 Q1015
00:50
M
5 °C 10 km+ 2.600 ft 080° 080° 11 kt METAR EDHI 042350Z AUTO 08011KT 9999 // OVC026/// 05/02 Q1015
00:20
M
5 °C 10 km+ 2.500 ft 080° 080° 8 kt METAR EDHI 042320Z AUTO 08008KT 050V110 9999 // OVC025/// 05/02 Q1015

4 mars 2024

Temps Code Temps Temp. Vue Base cloud Vent METAR/SPECI
23:50
M
5 °C 10 km+ 2.200 ft 080° 080° 11 kt METAR EDHI 042250Z AUTO 08011KT 9999 // OVC022/// 05/02 Q1014
23:20
M
6 °C 10 km+ 2.200 ft 080° 080° 10 kt METAR EDHI 042220Z AUTO 08010KT 9999 // FEW016/// OVC022/// 06/03 Q1014
22:50
M
6 °C 10 km+ 2.200 ft 080° 080° 10 kt METAR EDHI 042150Z AUTO 08010KT 9999 // FEW016/// BKN022/// BKN092/// 06/03 Q1014
22:20
M
7 °C 10 km+ 2.300 ft 080° 080° 12 kt METAR EDHI 042120Z AUTO 08012KT 9999 // SCT014/// BKN023/// OVC090/// 07/04 Q1014
21:50
V
7 °C 10 km+ 9.000 ft 070° 070° 9 kt METAR EDHI 042050Z AUTO 07009KT 9999 // SCT013/// SCT019/// BKN090/// 07/05 Q1014
20:20
V
7 °C 10 km+ 8.400 ft 070° 070° 7 kt METAR EDHI 041920Z AUTO 07007KT 9999 // FEW028/// OVC084/// 07/05 Q1013
19:50
V
7 °C 9 km 8.300 ft 070° 070° 7 kt METAR EDHI 041850Z AUTO 07007KT 9000 // FEW045/// BKN083/// 07/05 Q1013
19:20
V
8 °C 10 km+ 4.300 ft 050° 050° 11 kt METAR EDHI 041820Z 05011KT 9999 FEW034 BKN043 08/05 Q1013
18:50
V
9 °C 10 km+ 3.800 ft 050° 050° 8 kt METAR EDHI 041750Z 05008KT 9999 SCT029 OVC038 09/05 Q1012
18:20
M
10 °C 10 km+ 2.800 ft 050° 050° 9 kt METAR EDHI 041720Z 05009KT 9999 BKN028 OVC034 10/06 Q1012
17:50
M
11 °C 10 km+ 2.800 ft 040° 040° 9 kt METAR EDHI 041650Z 04009KT 9999 OVC028 11/06 Q1012
17:20
M
12 °C 10 km+ 3.000 ft 060° 060° 9 kt METAR EDHI 041620Z 06009KT 9999 BKN030 12/07 Q1011
16:50
V
12 °C 10 km+ - 040° 040° 10 kt METAR EDHI 041550Z 04010KT 9999 SCT029 12/07 Q1011
16:20
V
13 °C 10 km+ - 050° 050° 9 kt METAR EDHI 041520Z 05009KT 9999 SCT028 13/08 Q1011
15:50
V
14 °C 10 km+ - 080° 080° 4 kt METAR EDHI 041450Z 08004KT 060V140 9999 FEW027 14/08 Q1011
15:20
V
13 °C 10 km+ - 080° 080° 4 kt METAR EDHI 041420Z 08004KT 360V130 CAVOK 13/08 Q1011
14:50
V
13 °C 10 km+ - 090° 090° 3 kt METAR EDHI 041350Z 09003KT 010V170 CAVOK 13/08 Q1011
14:20
M
12 °C 7 km - 100° 100° 5 kt METAR EDHI 041320Z 10005KT 060V170 7000 FEW043 12/08 Q1011
13:50
M
11 °C 6 km - 090° 090° 6 kt METAR EDHI 041250Z 09006KT 060V140 6000 FEW011 11/07 Q1011
13:20
M
10 °C 5 km - 090° 090° 6 kt METAR EDHI 041220Z 09006KT 070V130 5000 BR FEW010 10/07 Q1011
12:50
I
9 °C 5 km 900 ft 060° 060° 5 kt METAR EDHI 041150Z 06005KT 040V110 5000 BR BKN009 09/07 Q1011
12:20
I
9 °C 5 km 800 ft 080° 080° 5 kt METAR EDHI 041120Z 08005KT 020V120 5000 BR OVC008 09/07 Q1011
11:50
I
9 °C 4,8 km 700 ft 090° 090° 5 kt METAR EDHI 041050Z 09005KT 060V120 4800 OVC007 09/07 Q1011
11:20
I
8 °C 4,1 km 600 ft 080° 080° 6 kt METAR EDHI 041020Z 08006KT 050V120 4100 BR OVC006 08/07 Q1011
10:50
I
8 °C 3,2 km 500 ft 070° 070° 6 kt METAR EDHI 040950Z 07006KT 3200 BR OVC005 08/07 Q1011
10:20
L
8 °C 2,6 km 400 ft 070° 070° 5 kt METAR EDHI 040920Z 07005KT 040V100 2600 BR OVC004 08/07 Q1010
09:50
L
7 °C 2,2 km 400 ft 080° 080° 5 kt METAR EDHI 040850Z 08005KT 2200 BR OVC004 07/07 Q1010
09:20
L
7 °C 1,9 km 300 ft 080° 080° 5 kt METAR EDHI 040820Z 08005KT 1900 BR OVC003 07/06 Q1010
08:50
L
7 °C 2,2 km 400 ft 080° 080° 6 kt METAR EDHI 040750Z 08006KT 2200 BR OVC004 07/06 Q1010
08:20
L
6 °C 2,2 km 400 ft 070° 070° 7 kt METAR EDHI 040720Z 07007KT 2200 BR BKN004 06/06 Q1009
07:50
I
6 °C 2,3 km - 060° 060° 7 kt METAR EDHI 040650Z 06007KT 2300 BR FEW004 SCT046 06/05 Q1009
07:20
I
6 °C 2,8 km - 040° 040° 6 kt METAR EDHI 040620Z 04006KT 2800 BR SCT048 06/06 Q1009
06:50
I
6 °C 3,5 km - 040° 040° 6 kt METAR EDHI 040550Z 04006KT 3500 BR NSC 06/06 Q1009
06:20
I
6 °C 3,7 km - 050° 050° 6 kt METAR EDHI 040520Z 05006KT 3700 BR NSC 06/05 Q1009
05:50
I
6 °C 3,9 km - 050° 050° 6 kt METAR EDHI 040450Z AUTO 05006KT 3900 // NCD 06/06 Q1008
05:20
I
7 °C 4,3 km - 050° 050° 5 kt METAR EDHI 040420Z AUTO 05005KT 4300 // SCT052/// 07/06 Q1008
04:50
I
7 °C 4,2 km 5.100 ft 050° 050° 6 kt METAR EDHI 040350Z AUTO 05006KT 4200 // BKN051/// 07/06 Q1008
04:20
I
7 °C 4,2 km 5.100 ft 040° 040° 6 kt METAR EDHI 040320Z AUTO 04006KT 4200 // OVC051/// 07/06 Q1007
03:50
I
7 °C 4,3 km 5.100 ft 050° 050° 7 kt METAR EDHI 040250Z AUTO 05007KT 4300 // OVC051/// 07/06 Q1007
03:20
I
7 °C 4,1 km 5.200 ft 040° 040° 6 kt METAR EDHI 040220Z AUTO 04006KT 4100 // BKN052/// 07/07 Q1007
02:50
I
7 °C 4,1 km 5.100 ft 040° 040° 6 kt METAR EDHI 040150Z AUTO 04006KT 4100 // BKN051/// 07/07 Q1007
02:20
I
8 °C 3,8 km 4.800 ft 050° 050° 6 kt METAR EDHI 040120Z AUTO 05006KT 3800 // OVC048/// 08/07 Q1007
01:50
I
8 °C 3,8 km 4.700 ft 050° 050° 7 kt METAR EDHI 040050Z AUTO 05007KT 3800 // OVC047/// 08/07 Q1007
01:20
I
8 °C 3,7 km 4.600 ft 040° 040° 6 kt METAR EDHI 040020Z AUTO 04006KT 3700 // OVC046/// 08/07 Q1007
00:50
I
8 °C 3,6 km 4.600 ft 040° 040° 5 kt METAR EDHI 032350Z AUTO 04005KT 3600 // OVC046/// 08/07 Q1007
00:20
I
8 °C 3,4 km 4.700 ft 040° 040° 5 kt METAR EDHI 032320Z AUTO 04005KT 3400 // BKN047/// 08/07 Q1007

3 mars 2024

Temps Code Temps Temp. Vue Base cloud Vent METAR/SPECI
23:50
I
7 °C 3,3 km 4.900 ft 040° 040° 6 kt METAR EDHI 032250Z AUTO 04006KT 3300 // BKN049/// 07/07 Q1007
23:20
I
7 °C 3,9 km 4.700 ft 030° 030° 5 kt METAR EDHI 032220Z AUTO 03005KT 3900 // BKN047/// 07/07 Q1007
22:50
I
8 °C 4,2 km - 040° 040° 6 kt METAR EDHI 032150Z AUTO 04006KT 4200 // FEW049/// 08/07 Q1006
22:20
I
8 °C 4,6 km - 050° 050° 7 kt METAR EDHI 032120Z AUTO 05007KT 4600 // NCD 08/07 Q1006
21:50
M
8 °C 5 km - 050° 050° 7 kt METAR EDHI 032050Z AUTO 05007KT 5000 // NCD 08/07 Q1006
21:20
M
9 °C 5 km - 050° 050° 8 kt METAR EDHI 032020Z AUTO 05008KT 5000 // FEW031/// SCT035/// 09/07 Q1006
20:50
M
9 °C 5 km - 050° 050° 6 kt METAR EDHI 031950Z AUTO 05006KT 5000 // FEW032/// 09/08 Q1006
20:20
M
9 °C 5 km - 060° 060° 6 kt METAR EDHI 031920Z AUTO 06006KT 5000 // NCD 09/07 Q1006
19:50
M
9 °C 5 km - 060° 060° 7 kt METAR EDHI 031850Z AUTO 06007KT 5000 // NCD 09/08 Q1005
19:20
M
10 °C 6 km - 060° 060° 7 kt METAR EDHI 031820Z AUTO 06007KT 6000 // SCT240/// 10/08 Q1005
18:50
M
10 °C 7 km - 060° 060° 7 kt METAR EDHI 031750Z AUTO 06007KT 7000 // FEW240/// 10/08 Q1005
18:20
V
11 °C 9 km - 070° 070° 6 kt METAR EDHI 031720Z AUTO 07006KT 9000 // NCD 11/08 Q1005
17:50
V
12 °C 10 km+ - 080° 080° 7 kt METAR EDHI 031650Z AUTO 08007KT 9999 // FEW042/// 12/08 Q1004
17:20
V
13 °C 10 km+ 4.100 ft 080° 080° 6 kt METAR EDHI 031620Z AUTO 08006KT 9999 // BKN041/// 13/07 Q1004
16:50
V
13 °C 10 km+ - 080° 080° 7 kt METAR EDHI 031550Z AUTO 08007KT 060V120 9999 // FEW039/// 13/07 Q1004
16:20
V
13 °C 10 km+ - 110° 110° 7 kt METAR EDHI 031520Z AUTO 11007KT 080V170 9999 // FEW034/// 13/07 Q1004
15:50
V
14 °C 10 km+ - 100° 100° 8 kt METAR EDHI 031450Z AUTO 10008KT 070V150 9999 // FEW037/// 14/07 Q1004
15:20
V
14 °C 10 km+ - 120° 120° 10 kt METAR EDHI 031420Z AUTO 12010KT 080V150 9999 // FEW031/// 14/06 Q1004
14:50
V
14 °C 10 km+ - 130° 130° 10 kt METAR EDHI 031350Z AUTO 13010KT 090V150 9999 // FEW031/// 14/07 Q1004
14:20
V
14 °C 10 km+ - 110° 110° 8 kt METAR EDHI 031320Z AUTO 11008KT 080V160 9999 // NCD 14/07 Q1004
13:50
V
14 °C 10 km+ - 100° 100° 8 kt METAR EDHI 031250Z AUTO 10008KT 060V140 9999 // NCD 14/07 Q1004
13:20
V
14 °C 10 km+ - 100° 100° 10 kt METAR EDHI 031220Z AUTO 10010KT 060V130 9999 // NCD 14/07 Q1004
12:50
V
13 °C 10 km+ - 100° 100° 8 kt METAR EDHI 031150Z AUTO 10008KT 050V170 9999 // NCD 13/07 Q1004
12:20
V
12 °C 10 km+ - 090° 090° 6 kt METAR EDHI 031120Z AUTO 09006KT 060V130 9999 // NCD 12/07 Q1004
11:50
V
12 °C 10 km+ - 080° 080° 7 kt METAR EDHI 031050Z AUTO 08007KT 050V130 9999 // NCD 12/07 Q1004
11:20
V
11 °C 10 km+ - 110° 110° 6 kt METAR EDHI 031020Z AUTO 11006KT 070V180 9999 // NCD 11/07 Q1005
10:50
V
10 °C 9 km - 100° 100° 6 kt METAR EDHI 030950Z AUTO 10006KT 060V150 9000 // FEW013/// 10/07 Q1005
10:20
V
9 °C 8 km - 090° 090° 6 kt METAR EDHI 030920Z AUTO 09006KT 060V130 8000 // FEW011/// 09/07 Q1005
09:50
M
8 °C 7 km - 090° 090° 6 kt METAR EDHI 030850Z AUTO 09006KT 050V140 7000 // FEW009/// 08/07 Q1005
09:20
M
8 °C 7 km - 090° 090° 6 kt METAR EDHI 030820Z AUTO 09006KT 070V140 7000 // FEW008/// 08/07 Q1005
08:50
M
7 °C 7 km - 080° 080° 4 kt METAR EDHI 030750Z AUTO 08004KT 7000 // FEW008/// 07/06 Q1005
08:20
M
5 °C 5 km - 080° 080° 4 kt METAR EDHI 030720Z AUTO 08004KT 5000 // NCD 05/05 Q1005
07:50
M
6 °C 6 km - 110° 110° 3 kt METAR EDHI 030650Z AUTO 11003KT 070V130 6000 // NCD 06/05 Q1005
07:20
V
6 °C 8 km - 090° 090° 3 kt METAR EDHI 030620Z AUTO 09003KT 060V120 8000 // NCD 06/05 Q1005
06:50
V
7 °C 8 km - 090° 090° 4 kt METAR EDHI 030550Z AUTO 09004KT 060V120 8000 // NCD 07/05 Q1004
06:20
V
7 °C 8 km - 080° 080° 7 kt METAR EDHI 030520Z AUTO 08007KT 8000 // NCD 07/05 Q1004
05:50
V
7 °C 8 km - 080° 080° 6 kt METAR EDHI 030450Z AUTO 08006KT 8000 // NCD 07/05 Q1004
05:20
V
7 °C 10 km+ - 100° 100° 6 kt METAR EDHI 030420Z AUTO 10006KT 070V130 9999 // FEW230/// 07/06 Q1004
04:50
V
7 °C 9 km 23.000 ft 100° 100° 5 kt METAR EDHI 030350Z AUTO 10005KT 070V130 9000 // BKN230/// 07/06 Q1004
04:20
V
7 °C 10 km+ 23.000 ft 090° 090° 6 kt METAR EDHI 030320Z AUTO 09006KT 9999 // BKN230/// 07/06 Q1004
03:50
V
7 °C 10 km+ 24.000 ft 090° 090° 6 kt METAR EDHI 030250Z AUTO 09006KT 070V130 9999 // BKN240/// 07/06 Q1004
03:20
V
7 °C 10 km+ 24.000 ft 080° 080° 7 kt METAR EDHI 030220Z AUTO 08007KT 9999 // BKN240/// 07/06 Q1004
02:50
V
8 °C 10 km+ 24.000 ft 090° 090° 7 kt METAR EDHI 030150Z AUTO 09007KT 9999 // BKN240/// 08/06 Q1004
02:20
V
8 °C 10 km+ 24.000 ft 090° 090° 7 kt METAR EDHI 030120Z AUTO 09007KT 060V120 9999 // BKN240/// 08/06 Q1005
01:50
V
8 °C 10 km+ 24.000 ft 090° 090° 5 kt METAR EDHI 030050Z AUTO 09005KT 060V120 9999 // BKN240/// 08/06 Q1005
01:20
V
8 °C 10 km+ 24.000 ft 100° 100° 5 kt METAR EDHI 030020Z AUTO 10005KT 070V130 9999 // BKN240/// 08/06 Q1005
00:50
V
8 °C 10 km+ 25.000 ft 100° 100° 5 kt METAR EDHI 022350Z AUTO 10005KT 9999 // BKN250/// 08/06 Q1005
00:20
V
8 °C 10 km+ - 100° 100° 5 kt METAR EDHI 022320Z AUTO 10005KT 9999 // SCT250/// 08/06 Q1005

2 mars 2024

Temps Code Temps Temp. Vue Base cloud Vent METAR/SPECI
23:50
V
8 °C 10 km+ - 090° 090° 5 kt METAR EDHI 022250Z AUTO 09005KT 9999 // NCD 08/06 Q1005
23:20
V
9 °C 10 km+ - 090° 090° 5 kt METAR EDHI 022220Z AUTO 09005KT 9999 // NCD 09/06 Q1005
22:50
V
8 °C 10 km+ - 110° 110° 4 kt METAR EDHI 022150Z AUTO 11004KT 070V150 9999 // NCD 08/06 Q1005
22:20
V
9 °C 10 km+ - 110° 110° 5 kt METAR EDHI 022120Z AUTO 11005KT 070V150 9999 // FEW210/// 09/06 Q1005
21:50
V
9 °C 10 km+ - 110° 110° 5 kt METAR EDHI 022050Z AUTO 11005KT 080V140 9999 // NCD 09/06 Q1005
21:20
V
9 °C 10 km+ - 110° 110° 5 kt METAR EDHI 022020Z AUTO 11005KT 080V140 9999 // NCD 09/06 Q1005
20:50
V
10 °C 10 km+ - 110° 110° 5 kt METAR EDHI 021950Z AUTO 11005KT 070V140 9999 // NCD 10/05 Q1005
20:20
V
10 °C 10 km+ 22.000 ft 110° 110° 6 kt METAR EDHI 021920Z AUTO 11006KT 9999 // BKN220/// 10/05 Q1005
19:50
V
10 °C 10 km+ 22.000 ft 110° 110° 5 kt METAR EDHI 021850Z AUTO 11005KT 070V170 9999 // BKN220/// 10/05 Q1005
19:20
V
11 °C 10 km+ 22.000 ft 110° 110° 6 kt METAR EDHI 021820Z AUTO 11006KT 090V150 9999 // BKN220/// 11/05 Q1005
18:50
V
11 °C 10 km+ 23.000 ft 110° 110° 6 kt METAR EDHI 021750Z AUTO 11006KT 070V160 9999 // BKN230/// 11/05 Q1005
18:20
V
11 °C 10 km+ - 110° 110° 5 kt METAR EDHI 021720Z AUTO 11005KT 060V150 9999 // FEW240/// 11/05 Q1005
17:50
V
11 °C 10 km+ - 120° 120° 5 kt METAR EDHI 021650Z AUTO 12005KT 080V150 9999 // SCT240/// 11/06 Q1004
17:20
V
12 °C 10 km+ - 120° 120° 6 kt METAR EDHI 021620Z AUTO 12006KT 080V150 9999 // SCT240/// 12/06 Q1004
16:50
V
12 °C 10 km+ - 130° 130° 5 kt METAR EDHI 021550Z AUTO 13005KT 100V180 9999 // FEW220/// 12/06 Q1004
16:20
V
13 °C 10 km+ - 130° 130° 8 kt METAR EDHI 021520Z AUTO 13008KT 100V160 9999 // NCD 13/06 Q1004
15:50
V
13 °C 10 km+ - 120° 120° 6 kt METAR EDHI 021450Z AUTO 12006KT 070V160 9999 // FEW210/// 13/05 Q1004
15:20
V
13 °C 10 km+ - 140° 140° 8 kt METAR EDHI 021420Z AUTO 14008KT 9999 // SCT200/// 13/05 Q1004
14:50
V
13 °C 10 km+ 19.000 ft 140° 140° 7 kt METAR EDHI 021350Z AUTO 14007KT 080V170 9999 // FEW160/// BKN190/// 13/05 Q1004
14:20
V
13 °C 10 km+ 16.000 ft 150° 150° 7 kt METAR EDHI 021320Z AUTO 15007KT 110V180 9999 // BKN160/// 13/05 Q1004
13:50
V
12 °C 10 km+ 17.000 ft 140° 140° 5 kt METAR EDHI 021250Z AUTO 14005KT 090V200 9999 // BKN170/// 12/05 Q1005
13:20
V
12 °C 10 km+ 17.000 ft 130° 130° 6 kt METAR EDHI 021220Z AUTO 13006KT 100V160 9999 // BKN170/// BKN210/// 12/06 Q1005
12:50
V
12 °C 10 km+ 18.000 ft 160° 160° 6 kt METAR EDHI 021150Z AUTO 16006KT 140V200 9999 // BKN180/// BKN220/// 12/06 Q1005
12:20
V
12 °C 10 km+ - 150° 150° 6 kt METAR EDHI 021120Z 15006KT 120V190 CAVOK 12/05 Q1005
11:50
V
12 °C 10 km+ - Var Var 4 kt METAR EDHI 021050Z VRB04KT CAVOK 12/06 Q1005
11:20
V
11 °C 10 km+ - 150° 150° 6 kt METAR EDHI 021020Z 15006KT 110V180 CAVOK 11/06 Q1004
10:50
V
10 °C 10 km+ - 160° 160° 4 kt METAR EDHI 020950Z 16004KT 120V200 CAVOK 10/06 Q1005
10:20
V
9 °C 10 km+ - 140° 140° 3 kt METAR EDHI 020920Z 14003KT 100V180 CAVOK 09/06 Q1005
09:50
V
8 °C 10 km+ - 110° 110° 3 kt METAR EDHI 020850Z 11003KT 070V150 CAVOK 08/06 Q1004
09:20
V
8 °C 10 km+ - 110° 110° 4 kt METAR EDHI 020820Z 11004KT 070V150 CAVOK 08/06 Q1004
08:50
V
7 °C 10 km+ - 110° 110° 3 kt METAR EDHI 020750Z 11003KT 070V150 CAVOK 07/06 Q1004
08:20
V
7 °C 10 km+ 17.000 ft 130° 130° 4 kt METAR EDHI 020720Z AUTO 13004KT 100V190 9999 // FEW150/// OVC170/// 07/06 Q1004
07:50
V
7 °C 9 km 18.000 ft 100° 100° 5 kt METAR EDHI 020650Z AUTO 10005KT 9000 // FEW140/// OVC180/// 07/06 Q1003
07:20
V
7 °C 10 km+ 14.000 ft 100° 100° 4 kt METAR EDHI 020620Z AUTO 10004KT 080V140 9999 // OVC140/// 07/05 Q1003
06:50
V
7 °C 10 km+ 11.000 ft 110° 110° 3 kt METAR EDHI 020550Z AUTO 11003KT 050V150 9999 // BKN110/// OVC140/// 07/05 Q1003